createdAt,value
2022-12-08T00:01:26.106Z,97954.63
2022-12-08T00:03:53.561Z,97956.50
2022-12-08T00:06:21.267Z,97956.66
2022-12-08T00:08:49.120Z,97956.63
2022-12-08T00:11:16.689Z,97955.63
2022-12-08T00:13:44.317Z,97953.09
2022-12-08T00:16:11.843Z,97953.06
2022-12-08T00:18:39.299Z,97951.17
2022-12-08T00:21:07.208Z,97958.06
2022-12-08T00:23:34.736Z,97958.05
2022-12-08T00:26:02.331Z,97961.12
2022-12-08T00:28:29.716Z,97959.48
2022-12-08T00:30:57.189Z,97964.38
2022-12-08T00:33:24.650Z,97966.23
2022-12-08T00:35:52.237Z,97965.04
2022-12-08T00:38:19.626Z,97971.73
2022-12-08T00:40:47.368Z,97976.00
2022-12-08T00:43:15.047Z,97977.52
2022-12-08T00:45:43.070Z,97981.88
2022-12-08T00:48:10.993Z,97981.46
2022-12-08T00:50:38.503Z,97985.99
2022-12-08T00:53:06.127Z,97987.81
2022-12-08T00:55:33.639Z,97988.67
2022-12-08T00:58:01.390Z,97990.71
2022-12-08T01:00:28.786Z,97987.66
2022-12-08T01:02:56.208Z,97987.77
2022-12-08T01:05:23.748Z,97994.82
2022-12-08T01:07:51.577Z,97994.23
2022-12-08T01:10:19.086Z,97999.44
2022-12-08T01:12:46.968Z,98004.52
2022-12-08T01:15:14.691Z,98002.02
2022-12-08T01:17:42.505Z,98002.49
2022-12-08T01:20:10.133Z,97999.19
2022-12-08T01:22:37.644Z,98001.35
2022-12-08T01:25:05.192Z,98005.88
2022-12-08T01:27:32.739Z,98002.88
2022-12-08T01:30:00.327Z,98000.36
2022-12-08T01:32:28.070Z,97997.51
2022-12-08T01:34:56.060Z,97996.44
2022-12-08T01:37:23.594Z,97998.10
2022-12-08T01:39:51.172Z,97997.06
2022-12-08T01:42:18.640Z,97996.73
2022-12-08T01:44:46.115Z,97994.23
2022-12-08T01:47:13.909Z,97990.58
2022-12-08T01:49:41.324Z,97989.85
2022-12-08T01:52:09.017Z,97986.47
2022-12-08T01:54:36.427Z,97988.98
2022-12-08T01:57:04.005Z,97985.48
2022-12-08T01:59:31.619Z,97985.17
2022-12-08T02:01:59.343Z,97984.73
2022-12-08T02:04:26.714Z,97988.30
2022-12-08T02:06:54.282Z,97992.20
2022-12-08T02:09:21.793Z,97995.91
2022-12-08T02:11:49.398Z,97996.25
2022-12-08T02:14:16.963Z,97999.98
2022-12-08T02:16:44.394Z,97998.34
2022-12-08T02:21:59.555Z,97992.52
2022-12-08T02:24:27.266Z,97991.02
2022-12-08T02:26:54.661Z,97989.33
2022-12-08T02:29:22.347Z,97990.84
2022-12-08T02:31:50.063Z,97990.82
2022-12-08T02:34:17.722Z,97994.48
2022-12-08T02:36:45.429Z,97993.34
2022-12-08T02:39:12.909Z,97988.85
2022-12-08T02:41:40.355Z,97992.67
2022-12-08T02:44:07.782Z,97992.48
2022-12-08T02:46:35.329Z,97995.88
2022-12-08T02:49:03.157Z,97996.73
2022-12-08T02:51:30.791Z,97996.63
2022-12-08T02:53:58.428Z,97997.67
2022-12-08T02:56:25.940Z,98000.60
2022-12-08T02:58:53.678Z,97998.67
2022-12-08T03:01:21.253Z,97995.63
2022-12-08T03:03:48.788Z,97993.66
2022-12-08T03:06:16.321Z,97994.52
2022-12-08T03:08:43.874Z,97991.83
2022-12-08T03:11:11.555Z,97992.55
2022-12-08T03:13:38.993Z,97988.23
2022-12-08T03:16:06.752Z,97989.10
2022-12-08T03:18:34.481Z,97989.45
2022-12-08T03:21:01.874Z,97989.61
2022-12-08T03:23:29.745Z,97981.52
2022-12-08T03:25:57.268Z,97982.18
2022-12-08T03:28:24.673Z,97981.45
2022-12-08T03:30:52.428Z,97980.25
2022-12-08T03:33:20.044Z,97978.25
2022-12-08T03:35:47.532Z,97973.92
2022-12-08T03:38:14.965Z,97974.95
2022-12-08T03:40:42.378Z,97974.62
2022-12-08T03:43:10.012Z,97973.90
2022-12-08T03:45:37.599Z,97969.70
2022-12-08T03:48:05.329Z,97967.89
2022-12-08T03:50:32.887Z,97969.80
2022-12-08T03:53:00.276Z,97977.23
2022-12-08T03:55:27.651Z,97975.39
2022-12-08T03:57:55.532Z,97977.91
2022-12-08T04:00:23.104Z,97974.05
2022-12-08T04:02:50.605Z,97977.58
2022-12-08T04:05:18.072Z,97977.62
2022-12-08T04:07:45.563Z,97982.23
2022-12-08T04:10:13.049Z,97984.13
2022-12-08T04:12:40.676Z,97985.84
2022-12-08T04:15:08.351Z,97986.85
2022-12-08T04:17:36.040Z,97985.03
2022-12-08T04:20:03.845Z,97988.42
2022-12-08T04:22:31.691Z,97984.41
2022-12-08T04:24:59.490Z,97983.08
2022-12-08T04:27:26.903Z,97983.28
2022-12-08T04:29:54.488Z,97978.59
2022-12-08T04:32:21.855Z,97978.52
2022-12-08T04:34:49.384Z,97976.46
2022-12-08T04:37:16.964Z,97979.31
2022-12-08T04:39:44.335Z,97978.67
2022-12-08T04:42:11.929Z,97972.46
2022-12-08T04:44:39.496Z,97966.75
2022-12-08T04:47:07.026Z,97971.47
2022-12-08T04:49:34.502Z,97971.42
2022-12-08T04:52:02.054Z,97970.02
2022-12-08T04:54:29.479Z,97966.31
2022-12-08T04:56:56.857Z,97968.34
2022-12-08T04:59:24.320Z,97966.70
2022-12-08T05:01:51.812Z,97968.77
2022-12-08T05:04:19.300Z,97964.77
2022-12-08T05:06:47.028Z,97963.30
2022-12-08T05:09:14.736Z,97965.80
2022-12-08T05:11:48.356Z,97967.80
2022-12-08T05:14:16.790Z,97969.16
2022-12-08T05:16:44.306Z,97968.31
2022-12-08T05:19:11.829Z,97971.34
2022-12-08T05:21:39.504Z,97968.61
2022-12-08T05:24:07.048Z,97970.48
2022-12-08T05:26:34.433Z,97972.10
2022-12-08T05:29:01.817Z,97975.07
2022-12-08T05:31:29.575Z,97973.19
2022-12-08T05:34:02.461Z,97972.98
2022-12-08T05:36:30.732Z,97969.11
2022-12-08T05:38:58.249Z,97966.77
2022-12-08T05:41:25.747Z,97965.61
2022-12-08T05:43:53.164Z,97968.32
2022-12-08T05:46:20.892Z,97970.46
2022-12-08T05:48:48.657Z,97964.19
2022-12-08T05:51:16.217Z,97969.35
2022-12-08T05:53:43.614Z,97976.40
2022-12-08T05:56:12.372Z,97972.91
2022-12-08T05:58:40.421Z,97973.96
2022-12-08T06:01:07.947Z,97972.30
2022-12-08T06:03:35.475Z,97975.04
2022-12-08T06:06:03.055Z,97984.64
2022-12-08T06:08:30.866Z,97985.50
2022-12-08T06:10:58.409Z,97994.25
2022-12-08T06:13:25.830Z,97993.75
2022-12-08T06:15:53.544Z,97987.86
2022-12-08T06:18:21.044Z,97986.02
2022-12-08T06:20:48.508Z,97985.67
2022-12-08T06:23:16.087Z,97985.34
2022-12-08T06:25:43.611Z,97986.85
2022-12-08T06:28:10.996Z,97986.86
2022-12-08T06:30:38.677Z,97992.95
2022-12-08T06:33:06.327Z,97995.10
2022-12-08T06:35:33.741Z,97996.18
2022-12-08T06:38:02.088Z,97994.95
2022-12-08T06:40:29.569Z,97997.61
2022-12-08T06:42:57.322Z,98000.33
2022-12-08T06:45:25.073Z,98000.35
2022-12-08T06:47:52.603Z,98005.54
2022-12-08T06:50:20.350Z,98008.98
2022-12-08T06:52:59.569Z,98010.27
2022-12-08T06:55:57.937Z,98008.36
2022-12-08T06:58:20.211Z,98016.46
2022-12-08T07:00:47.809Z,98019.36
2022-12-08T07:03:15.497Z,98024.27
2022-12-08T07:05:42.999Z,98025.04
2022-12-08T07:08:10.592Z,98029.88
2022-12-08T07:10:38.246Z,98030.17
2022-12-08T07:13:05.788Z,98029.17
2022-12-08T07:15:33.706Z,98027.37
2022-12-08T07:18:01.311Z,98023.85
2022-12-08T07:20:29.033Z,98022.69
2022-12-08T07:22:56.572Z,98024.13
2022-12-08T07:25:24.234Z,98021.23
2022-12-08T07:27:51.794Z,98025.10
2022-12-08T07:30:19.662Z,98019.92
2022-12-08T07:32:47.513Z,98018.77
2022-12-08T07:35:15.020Z,98013.24
2022-12-08T07:37:42.457Z,98016.11
2022-12-08T07:40:09.874Z,98014.22
2022-12-08T07:42:37.465Z,98012.30
2022-12-08T07:45:05.101Z,98009.70
2022-12-08T07:47:32.560Z,98009.18
2022-12-08T07:50:00.139Z,98010.02
2022-12-08T07:52:27.763Z,98012.20
2022-12-08T07:54:55.152Z,98016.09
2022-12-08T07:57:22.741Z,98016.95
2022-12-08T07:59:50.521Z,98018.11
2022-12-08T08:02:26.164Z,98018.10
2022-12-08T08:04:54.423Z,98017.56
2022-12-08T08:07:22.076Z,98015.66
2022-12-08T08:09:49.859Z,98019.48
2022-12-08T08:12:33.178Z,98020.55
2022-12-08T08:15:00.861Z,98019.23
2022-12-08T08:17:28.460Z,98022.81
2022-12-08T08:19:56.348Z,98020.27
2022-12-08T08:22:23.732Z,98021.73
2022-12-08T08:24:51.535Z,98019.72
2022-12-08T08:27:19.242Z,98020.92
2022-12-08T08:29:46.622Z,98020.30
2022-12-08T08:32:14.360Z,98019.22
2022-12-08T08:34:41.842Z,98018.13
2022-12-08T08:37:09.596Z,98016.41
2022-12-08T08:39:37.495Z,98014.46
2022-12-08T08:42:04.969Z,98016.39
2022-12-08T08:44:32.383Z,98009.84
2022-12-08T08:47:00.312Z,98007.77
2022-12-08T08:49:28.067Z,98010.79
2022-12-08T08:51:55.785Z,98012.17
2022-12-08T08:54:23.446Z,98009.65
2022-12-08T08:56:50.976Z,98012.16
2022-12-08T08:59:18.561Z,98012.73
2022-12-08T09:01:46.028Z,98008.17
2022-12-08T09:04:13.808Z,98008.33
2022-12-08T09:06:41.249Z,98003.97
2022-12-08T09:09:08.907Z,98007.85
2022-12-08T09:11:36.715Z,98010.36
2022-12-08T09:14:04.146Z,98007.11
2022-12-08T09:16:32.173Z,98005.73
2022-12-08T09:19:01.703Z,98002.50
2022-12-08T09:21:29.111Z,98003.70
2022-12-08T09:23:56.518Z,98004.82
2022-12-08T09:26:24.216Z,97999.49
2022-12-08T09:28:52.339Z,97995.55
2022-12-08T09:31:21.019Z,97994.81
2022-12-08T09:33:50.012Z,97990.16
2022-12-08T09:36:17.412Z,97986.58
2022-12-08T09:38:45.194Z,97985.81
2022-12-08T09:41:12.593Z,97986.00
2022-12-08T09:43:40.329Z,97977.28
2022-12-08T09:46:08.377Z,97977.58
2022-12-08T09:48:35.902Z,97973.95
2022-12-08T09:51:03.491Z,97967.32
2022-12-08T09:53:35.461Z,97965.27
2022-12-08T09:56:03.698Z,97966.34
2022-12-08T09:58:31.228Z,97960.00
2022-12-08T10:00:58.702Z,97960.24
2022-12-08T10:03:26.355Z,97960.86
2022-12-08T10:05:53.799Z,97956.15
2022-12-08T10:08:21.339Z,97957.65
2022-12-08T10:10:49.704Z,97958.27
2022-12-08T10:13:17.350Z,97955.52
2022-12-08T10:15:45.241Z,97959.83
2022-12-08T10:18:12.957Z,97961.27
2022-12-08T10:20:40.460Z,97960.41
2022-12-08T10:23:08.122Z,97960.67
2022-12-08T10:25:35.850Z,97954.40
2022-12-08T10:28:03.470Z,97951.32
2022-12-08T10:30:31.011Z,97950.79
2022-12-08T10:32:58.952Z,97950.73
2022-12-08T10:35:26.817Z,97949.55
2022-12-08T10:37:54.550Z,97945.91
2022-12-08T10:40:22.173Z,97944.06
2022-12-08T10:42:49.711Z,97945.85
2022-12-08T10:45:17.538Z,97941.30
2022-12-08T10:47:46.522Z,97940.81
2022-12-08T10:50:16.348Z,97941.69
2022-12-08T10:52:44.110Z,97936.23
2022-12-08T10:55:11.730Z,97936.52
2022-12-08T10:57:39.727Z,97935.41
2022-12-08T11:00:13.666Z,97929.75
2022-12-08T11:02:41.671Z,97925.91
2022-12-08T11:05:09.294Z,97933.34
2022-12-08T11:07:37.042Z,97926.09
2022-12-08T11:10:05.294Z,97928.08
2022-12-08T11:12:33.092Z,97928.79
2022-12-08T11:15:00.471Z,97930.77
2022-12-08T11:17:28.078Z,97932.61
2022-12-08T11:19:55.864Z,97935.02
2022-12-08T11:22:23.443Z,97932.99
2022-12-08T11:24:51.092Z,97927.90
2022-12-08T11:27:18.761Z,97931.83
2022-12-08T11:29:46.539Z,97929.59
2022-12-08T11:32:14.239Z,97929.83
2022-12-08T11:34:41.997Z,97931.38
2022-12-08T11:37:09.648Z,97929.02
2022-12-08T11:39:37.290Z,97929.70
2022-12-08T11:42:05.027Z,97926.36
2022-12-08T11:44:32.580Z,97928.79
2022-12-08T11:47:00.113Z,97925.92
2022-12-08T11:49:27.946Z,97926.27
2022-12-08T11:51:55.626Z,97927.89
2022-12-08T11:54:23.432Z,97935.55
2022-12-08T11:56:50.898Z,97936.28
2022-12-08T11:59:18.427Z,97937.66
2022-12-08T12:01:45.901Z,97938.36
2022-12-08T12:04:13.367Z,97944.09
2022-12-08T12:06:56.795Z,97939.83
2022-12-08T12:09:24.296Z,97941.02
2022-12-08T12:11:52.011Z,97939.55
2022-12-08T12:14:19.399Z,97939.56
2022-12-08T12:16:46.879Z,97939.42
2022-12-08T12:19:14.318Z,97938.20
2022-12-08T12:21:42.699Z,97934.48
2022-12-08T12:24:10.279Z,97934.79
2022-12-08T12:26:38.009Z,97933.38
2022-12-08T12:29:05.935Z,97933.32
2022-12-08T12:31:33.674Z,97926.69
2022-12-08T12:34:01.444Z,97926.27
2022-12-08T12:36:28.963Z,97927.27
2022-12-08T12:38:56.741Z,97927.08
2022-12-08T12:41:25.663Z,97924.93
2022-12-08T12:43:53.554Z,97920.64
2022-12-08T12:46:21.340Z,97919.42
2022-12-08T12:48:49.091Z,97916.16
2022-12-08T12:51:16.635Z,97914.36
2022-12-08T12:53:44.345Z,97912.73
2022-12-08T12:56:12.011Z,97915.29
2022-12-08T12:58:39.671Z,97911.98
2022-12-08T13:01:07.084Z,97909.70
2022-12-08T13:03:35.473Z,97910.11
2022-12-08T13:06:03.129Z,97909.33
2022-12-08T13:08:30.980Z,97910.80
2022-12-08T13:10:58.825Z,97908.11
2022-12-08T13:13:26.380Z,97910.81
2022-12-08T13:15:54.105Z,97907.48
2022-12-08T13:18:21.819Z,97905.66
2022-12-08T13:20:49.520Z,97902.02
2022-12-08T13:23:17.102Z,97905.75
2022-12-08T13:25:44.491Z,97901.80
2022-12-08T13:28:12.625Z,97901.27
2022-12-08T13:30:40.360Z,97900.46
2022-12-08T13:33:23.333Z,97899.02
2022-12-08T13:35:50.753Z,97896.27
2022-12-08T13:38:18.417Z,97895.71
2022-12-08T13:40:46.325Z,97896.91
2022-12-08T13:43:13.875Z,97894.93
2022-12-08T13:46:41.877Z,97894.01
2022-12-08T13:49:09.957Z,97892.30
2022-12-08T13:57:05.474Z,97897.63
2022-12-08T13:59:34.500Z,97898.38
2022-12-08T14:02:02.158Z,97894.14
2022-12-08T14:07:17.429Z,97899.98
2022-12-08T14:09:44.921Z,97898.15
2022-12-08T14:12:12.308Z,97898.69
2022-12-08T14:15:01.803Z,97902.08
2022-12-08T14:17:27.956Z,97904.30
2022-12-08T14:19:55.614Z,97904.12
2022-12-08T14:22:23.325Z,97908.23
2022-12-08T14:24:50.992Z,97905.80
2022-12-08T14:27:18.638Z,97905.05
2022-12-08T14:29:46.375Z,97904.23
2022-12-08T14:32:13.834Z,97908.44
2022-12-08T14:34:41.533Z,97905.39
2022-12-08T14:37:09.115Z,97904.71
2022-12-08T14:39:36.627Z,97904.35
2022-12-08T14:42:04.189Z,97904.69
2022-12-08T14:44:31.708Z,97908.27
2022-12-08T14:47:03.984Z,97909.19
2022-12-08T14:49:32.972Z,97908.08
2022-12-08T14:52:00.520Z,97910.68
2022-12-08T14:54:27.986Z,97908.59
2022-12-08T14:56:55.872Z,97903.91
2022-12-08T14:59:23.419Z,97905.92
2022-12-08T15:01:51.026Z,97906.75
2022-12-08T15:04:18.848Z,97908.61
2022-12-08T15:06:46.550Z,97907.92
2022-12-08T15:09:14.042Z,97907.77
2022-12-08T15:11:41.859Z,97906.75
2022-12-08T15:14:09.387Z,97909.42
2022-12-08T15:16:36.965Z,97908.00
2022-12-08T15:19:04.790Z,97905.14
2022-12-08T15:21:32.454Z,97905.79
2022-12-08T15:24:00.033Z,97904.04
2022-12-08T15:26:27.682Z,97902.13
2022-12-08T15:28:55.275Z,97908.14
2022-12-08T15:31:22.733Z,97903.40
2022-12-08T15:33:50.269Z,97904.63
2022-12-08T15:36:17.679Z,97899.34
2022-12-08T15:38:45.147Z,97900.33
2022-12-08T15:41:15.141Z,97902.11
2022-12-08T15:43:43.083Z,97900.51
2022-12-08T15:46:10.776Z,97900.46
2022-12-08T15:48:38.535Z,97900.90
2022-12-08T15:51:06.192Z,97897.53
2022-12-08T15:53:33.640Z,97897.87
2022-12-08T15:56:27.045Z,97892.77
2022-12-08T15:58:54.097Z,97893.41
2022-12-08T16:01:23.119Z,97895.42
2022-12-08T16:09:27.097Z,97884.77
2022-12-08T16:12:06.504Z,97884.98
2022-12-08T16:17:22.155Z,97886.18
2022-12-08T16:19:50.266Z,97882.05
2022-12-08T16:22:51.788Z,97884.13
2022-12-08T16:25:22.294Z,97883.67
2022-12-08T16:30:37.907Z,97877.75
2022-12-08T16:33:05.569Z,97877.70
2022-12-08T16:35:33.366Z,97879.36
2022-12-08T16:38:01.045Z,97879.64
2022-12-08T16:40:29.017Z,97877.36
2022-12-08T16:42:56.929Z,97872.73
2022-12-08T16:45:24.566Z,97873.45
2022-12-08T16:47:52.417Z,97876.70
2022-12-08T16:50:19.814Z,97875.56
2022-12-08T16:52:47.864Z,97873.14
2022-12-08T16:55:15.318Z,97869.96
2022-12-08T16:57:42.710Z,97867.09
2022-12-08T17:00:10.498Z,97869.02
2022-12-08T17:02:37.952Z,97860.14
2022-12-08T17:05:06.069Z,97860.70
2022-12-08T17:07:33.497Z,97857.23
2022-12-08T17:10:01.014Z,97854.53
2022-12-08T17:12:28.657Z,97857.21
2022-12-08T17:14:56.579Z,97859.38
2022-12-08T17:17:24.022Z,97860.77
2022-12-08T17:19:51.456Z,97865.02
2022-12-08T17:22:18.906Z,97860.69
2022-12-08T17:24:46.732Z,97862.41
2022-12-08T17:27:14.268Z,97863.59
2022-12-08T17:29:41.658Z,97863.35
2022-12-08T17:32:09.825Z,97859.94
2022-12-08T17:34:37.409Z,97856.66
2022-12-08T17:37:06.597Z,97858.49
2022-12-08T17:39:34.050Z,97860.36
2022-12-08T17:42:01.700Z,97856.67
2022-12-08T17:44:29.160Z,97854.88
2022-12-08T17:46:56.553Z,97847.80
2022-12-08T17:49:24.278Z,97850.62
2022-12-08T17:51:52.036Z,97851.63
2022-12-08T17:54:19.485Z,97852.48
2022-12-08T17:56:47.220Z,97852.31
2022-12-08T17:59:14.670Z,97848.31
2022-12-08T18:01:42.323Z,97846.34
2022-12-08T18:04:10.124Z,97841.02
2022-12-08T18:06:37.842Z,97844.89
2022-12-08T18:09:05.429Z,97842.02
2022-12-08T18:11:33.172Z,97841.67
2022-12-08T18:14:00.784Z,97839.45
2022-12-08T18:16:28.503Z,97836.73
2022-12-08T18:18:56.063Z,97833.16
2022-12-08T18:21:23.969Z,97831.29
2022-12-08T18:23:51.877Z,97825.22
2022-12-08T18:26:19.420Z,97828.42
2022-12-08T18:28:47.203Z,97824.91
2022-12-08T18:31:14.733Z,97824.22
2022-12-08T18:33:42.697Z,97822.57
2022-12-08T18:36:10.349Z,97825.14
2022-12-08T18:38:37.781Z,97823.66
2022-12-08T18:41:05.207Z,97819.65
2022-12-08T18:43:33.041Z,97816.33
2022-12-08T18:46:00.711Z,97816.51
2022-12-08T18:48:28.164Z,97813.81
2022-12-08T18:50:55.870Z,97813.44
2022-12-08T18:53:23.655Z,97813.98
2022-12-08T18:55:51.064Z,97811.98
2022-12-08T18:58:18.631Z,97813.67
2022-12-08T19:00:46.036Z,97815.70
2022-12-08T19:03:13.570Z,97819.16
2022-12-08T19:05:40.994Z,97818.33
2022-12-08T19:08:09.039Z,97815.92
2022-12-08T19:10:36.632Z,97813.04
2022-12-08T19:13:04.328Z,97815.02
2022-12-08T19:15:31.773Z,97814.11
2022-12-08T19:17:59.290Z,97811.14
2022-12-08T19:20:26.762Z,97815.15
2022-12-08T19:22:54.602Z,97813.75
2022-12-08T19:25:21.976Z,97812.38
2022-12-08T19:27:49.934Z,97814.02
2022-12-08T19:30:17.610Z,97818.58
2022-12-08T19:32:45.464Z,97818.98
2022-12-08T19:35:13.166Z,97819.73
2022-12-08T19:37:40.774Z,97816.23
2022-12-08T19:40:08.518Z,97819.10
2022-12-08T19:42:36.463Z,97817.75
2022-12-08T19:45:04.429Z,97818.10
2022-12-08T19:47:32.006Z,97816.75
2022-12-08T19:49:59.558Z,97816.58
2022-12-08T19:52:27.404Z,97816.79
2022-12-08T19:54:54.804Z,97815.30
2022-12-08T19:57:22.190Z,97814.72
2022-12-08T19:59:56.018Z,97810.46
2022-12-08T20:02:23.837Z,97810.26
2022-12-08T20:04:51.556Z,97804.51
2022-12-08T20:07:19.131Z,97803.52
2022-12-08T20:09:46.732Z,97803.06
2022-12-08T20:12:14.319Z,97805.12
2022-12-08T20:14:45.848Z,97804.98
2022-12-08T20:17:13.713Z,97808.23
2022-12-08T20:19:41.245Z,97809.80
2022-12-08T20:22:09.024Z,97807.55
2022-12-08T20:24:36.593Z,97809.76
2022-12-08T20:27:04.603Z,97811.64
2022-12-08T20:29:32.275Z,97809.33
2022-12-08T20:32:00.147Z,97807.20
2022-12-08T20:34:27.793Z,97804.34
2022-12-08T20:36:55.303Z,97801.92
2022-12-08T20:39:23.358Z,97805.24
2022-12-08T20:41:50.881Z,97807.10
2022-12-08T20:44:18.253Z,97808.63
2022-12-08T20:46:49.459Z,97811.14
2022-12-08T20:49:17.666Z,97814.52
2022-12-08T20:51:45.284Z,97812.67
2022-12-08T20:54:13.311Z,97813.24
2022-12-08T20:56:45.019Z,97813.67
2022-12-08T20:59:16.205Z,97812.76
2022-12-08T21:01:44.058Z,97815.63
2022-12-08T21:04:12.200Z,97814.54
2022-12-08T21:06:40.381Z,97813.09
2022-12-08T21:09:08.171Z,97813.14
2022-12-08T21:11:35.875Z,97816.20
2022-12-08T21:14:03.309Z,97814.61
2022-12-08T21:16:31.063Z,97817.59
2022-12-08T21:18:58.882Z,97814.36
2022-12-08T21:21:26.868Z,97810.92
2022-12-08T21:23:54.256Z,97809.73
2022-12-08T21:26:21.701Z,97811.91
2022-12-08T21:28:49.552Z,97811.58
2022-12-08T21:31:17.485Z,97812.31
2022-12-08T21:33:45.121Z,97813.20
2022-12-08T21:36:12.761Z,97819.14
2022-12-08T21:38:40.563Z,97819.16
2022-12-08T21:41:08.331Z,97814.92
2022-12-08T21:43:35.853Z,97811.23
2022-12-08T21:46:03.672Z,97813.07
2022-12-08T21:48:31.833Z,97813.84
2022-12-08T21:50:59.660Z,97812.14
2022-12-08T21:53:27.523Z,97809.16
2022-12-08T21:55:55.142Z,97806.33
2022-12-08T21:58:23.863Z,97806.91
2022-12-08T22:00:51.602Z,97809.80
2022-12-08T22:03:19.669Z,97808.91
2022-12-08T22:05:47.791Z,97807.70
2022-12-08T22:08:15.487Z,97807.98
2022-12-08T22:10:43.237Z,97805.11
2022-12-08T22:13:10.905Z,97803.13
2022-12-08T22:15:38.619Z,97799.79
2022-12-08T22:18:06.061Z,97798.81
2022-12-08T22:20:36.188Z,97798.41
2022-12-08T22:23:07.241Z,97795.39
2022-12-08T22:25:34.967Z,97794.20
2022-12-08T22:28:02.403Z,97792.83
2022-12-08T22:30:34.046Z,97793.21
2022-12-08T22:33:04.990Z,97794.89
2022-12-08T22:35:32.643Z,97790.90
2022-12-08T22:38:00.151Z,97793.73
2022-12-08T22:40:27.759Z,97793.23
2022-12-08T22:42:55.282Z,97793.58
2022-12-08T22:45:23.207Z,97795.59
2022-12-08T22:47:51.138Z,97795.20
2022-12-08T22:50:19.125Z,97795.19
2022-12-08T22:52:46.904Z,97793.45
2022-12-08T22:55:14.923Z,97792.17
2022-12-08T22:57:42.769Z,97790.53
2022-12-08T23:00:10.984Z,97792.34
2022-12-08T23:02:38.851Z,97795.83
2022-12-08T23:05:07.298Z,97794.66
2022-12-08T23:07:35.173Z,97793.08
2022-12-08T23:10:03.039Z,97796.58
2022-12-08T23:12:31.125Z,97792.23
2022-12-08T23:14:58.875Z,97792.77
2022-12-08T23:17:26.612Z,97796.61
2022-12-08T23:19:54.281Z,97796.42
2022-12-08T23:22:22.067Z,97794.10
2022-12-08T23:24:49.677Z,97786.00
2022-12-08T23:27:17.502Z,97786.83
2022-12-08T23:29:45.045Z,97783.02
2022-12-08T23:32:13.475Z,97778.98
2022-12-08T23:34:41.329Z,97775.23
2022-12-08T23:37:09.024Z,97773.13
2022-12-08T23:39:37.377Z,97774.95
2022-12-08T23:42:04.888Z,97772.06
2022-12-08T23:44:33.273Z,97774.91
2022-12-08T23:47:01.301Z,97776.77
2022-12-08T23:49:29.336Z,97776.30
2022-12-08T23:51:56.897Z,97777.30
2022-12-08T23:54:24.808Z,97772.76
2022-12-08T23:56:52.275Z,97772.24
2022-12-08T23:59:19.934Z,97773.46
